createdAt,value
2022-12-08T00:00:16.697Z,29.928
2022-12-08T00:05:16.596Z,29.925
2022-12-08T00:10:47.263Z,29.926
2022-12-08T00:15:17.132Z,29.925
2022-12-08T00:20:17.851Z,29.926
2022-12-08T00:25:16.765Z,29.926
2022-12-08T00:30:16.806Z,29.928
2022-12-08T00:35:16.814Z,29.927
2022-12-08T00:40:16.805Z,29.925
2022-12-08T00:45:16.726Z,29.923
2022-12-08T00:50:16.965Z,29.921
2022-12-08T00:55:16.886Z,29.919
2022-12-08T01:00:16.775Z,29.917
2022-12-08T01:05:17.738Z,29.918
2022-12-08T01:10:18.011Z,29.914
2022-12-08T01:15:17.963Z,29.912
2022-12-08T01:20:18.475Z,29.911
2022-12-08T01:25:17.934Z,29.910
2022-12-08T01:30:17.878Z,29.910
2022-12-08T01:35:17.887Z,29.909
2022-12-08T01:40:18.141Z,29.908
2022-12-08T01:45:17.950Z,29.909
2022-12-08T01:50:17.902Z,29.913
2022-12-08T01:55:18.179Z,29.911
2022-12-08T02:00:17.983Z,29.906
2022-12-08T02:05:18.390Z,29.912
2022-12-08T02:10:18.194Z,29.913
2022-12-08T02:15:17.934Z,29.919
2022-12-08T02:20:18.046Z,29.919
2022-12-08T02:25:18.266Z,29.918
2022-12-08T02:30:18.445Z,29.918
2022-12-08T02:35:18.171Z,29.917
2022-12-08T02:40:18.268Z,29.914
2022-12-08T02:45:18.035Z,29.913
2022-12-08T02:50:18.152Z,29.911
2022-12-08T02:55:18.270Z,29.909
2022-12-08T03:00:18.095Z,29.911
2022-12-08T03:05:18.282Z,29.906
2022-12-08T03:10:18.353Z,29.897
2022-12-08T03:15:18.089Z,29.896
2022-12-08T03:20:18.147Z,29.897
2022-12-08T03:25:18.187Z,29.894
2022-12-08T03:30:18.487Z,29.892
2022-12-08T03:35:16.409Z,29.890
2022-12-08T03:40:17.040Z,29.890
2022-12-08T03:45:16.246Z,29.890
2022-12-08T03:50:16.399Z,29.890
2022-12-08T03:55:16.234Z,29.890
2022-12-08T04:00:16.196Z,29.890
2022-12-08T04:05:16.227Z,29.887
2022-12-08T04:10:16.360Z,29.887
2022-12-08T04:15:16.316Z,29.888
2022-12-08T04:20:16.258Z,29.889
2022-12-08T04:25:16.675Z,29.889
2022-12-08T04:30:16.367Z,29.886
2022-12-08T04:35:16.473Z,29.887
2022-12-08T04:40:16.505Z,29.892
2022-12-08T04:45:16.522Z,29.890
2022-12-08T04:50:16.544Z,29.889
2022-12-08T04:55:16.578Z,29.888
2022-12-08T05:00:17.706Z,29.889
2022-12-08T05:05:16.557Z,29.886
2022-12-08T05:10:16.409Z,29.888
2022-12-08T05:15:17.163Z,29.885
2022-12-08T05:20:16.465Z,29.887
2022-12-08T05:25:16.730Z,29.887
2022-12-08T05:30:17.249Z,29.889
2022-12-08T05:35:16.471Z,29.888
2022-12-08T05:40:16.867Z,29.890
2022-12-08T05:45:16.492Z,29.890
2022-12-08T05:50:16.636Z,29.892
2022-12-08T05:55:16.921Z,29.894
2022-12-08T06:00:16.757Z,29.898
2022-12-08T06:05:16.583Z,29.903
2022-12-08T06:10:16.708Z,29.902
2022-12-08T06:15:16.681Z,29.902
2022-12-08T06:20:16.595Z,29.904
2022-12-08T06:25:16.633Z,29.906
2022-12-08T06:30:16.636Z,29.909
2022-12-08T06:35:16.858Z,29.910
2022-12-08T06:40:16.754Z,29.915
2022-12-08T06:45:16.755Z,29.913
2022-12-08T06:50:16.674Z,29.916
2022-12-08T06:55:35.419Z,29.920
2022-12-08T07:00:16.719Z,29.923
2022-12-08T07:05:16.873Z,29.921
2022-12-08T07:10:16.930Z,29.922
2022-12-08T07:15:16.792Z,29.924
2022-12-08T07:20:16.812Z,29.925
2022-12-08T07:25:16.905Z,29.926
2022-12-08T07:30:16.847Z,29.928
2022-12-08T07:35:16.683Z,29.930
2022-12-08T07:40:16.887Z,29.931
2022-12-08T07:45:16.784Z,29.931
2022-12-08T07:50:17.037Z,29.932
2022-12-08T07:55:16.886Z,29.934
2022-12-08T08:00:16.790Z,29.932
2022-12-08T08:05:16.823Z,29.932
2022-12-08T08:10:17.203Z,29.932
2022-12-08T08:15:16.975Z,29.933
2022-12-08T08:20:17.046Z,29.933
2022-12-08T08:25:16.918Z,29.931
2022-12-08T08:30:20.810Z,29.934
2022-12-08T08:35:16.850Z,29.937
2022-12-08T08:40:20.138Z,29.937
2022-12-08T08:45:16.821Z,29.940
2022-12-08T08:50:17.010Z,29.941
2022-12-08T08:55:17.613Z,29.944
2022-12-08T09:00:16.916Z,29.944
2022-12-08T09:05:17.074Z,29.946
2022-12-08T09:10:17.153Z,29.950
2022-12-08T09:15:16.939Z,29.951
2022-12-08T09:20:16.978Z,29.950
2022-12-08T09:25:17.266Z,29.950
2022-12-08T09:30:17.241Z,29.952
2022-12-08T09:35:16.950Z,29.952
2022-12-08T09:40:17.122Z,29.951
2022-12-08T09:45:17.062Z,29.953
2022-12-08T09:50:17.105Z,29.955
2022-12-08T09:55:17.206Z,29.954
2022-12-08T10:00:17.259Z,29.955
2022-12-08T10:05:17.382Z,29.957
2022-12-08T10:10:17.213Z,29.963
2022-12-08T10:15:17.088Z,29.965
2022-12-08T10:20:17.179Z,29.965
2022-12-08T10:25:17.222Z,29.968
2022-12-08T10:30:17.179Z,29.968
2022-12-08T10:35:17.775Z,29.971
2022-12-08T10:40:17.347Z,29.974
2022-12-08T10:45:17.578Z,29.973
2022-12-08T10:50:17.186Z,29.977
2022-12-08T10:55:17.372Z,29.978
2022-12-08T11:00:17.661Z,29.979
2022-12-08T11:05:17.395Z,29.979
2022-12-08T11:10:18.709Z,29.979
2022-12-08T11:15:17.221Z,29.982
2022-12-08T11:20:17.519Z,29.981
2022-12-08T11:25:17.342Z,29.984
2022-12-08T11:30:17.927Z,29.984
2022-12-08T11:35:17.270Z,29.985
2022-12-08T11:40:17.435Z,29.989
2022-12-08T11:45:17.626Z,29.988
2022-12-08T11:50:19.560Z,29.990
2022-12-08T11:55:17.497Z,29.992
2022-12-08T12:00:17.560Z,29.993
2022-12-08T12:05:33.258Z,29.998
2022-12-08T12:10:17.732Z,29.999
2022-12-08T12:15:17.402Z,30.001
2022-12-08T12:20:17.828Z,30.006
2022-12-08T12:25:17.551Z,30.002
2022-12-08T12:30:17.552Z,30.003
2022-12-08T12:35:18.066Z,30.005
2022-12-08T12:40:17.639Z,30.007
2022-12-08T12:45:17.584Z,30.008
2022-12-08T12:50:17.554Z,30.008
2022-12-08T12:55:17.888Z,30.008
2022-12-08T13:00:17.597Z,30.008
2022-12-08T13:05:18.297Z,30.008
2022-12-08T13:10:17.792Z,30.010
2022-12-08T13:15:17.703Z,30.013
2022-12-08T13:20:17.577Z,30.015
2022-12-08T13:25:17.557Z,30.015
2022-12-08T13:30:17.993Z,30.016
2022-12-08T13:35:17.597Z,30.015
2022-12-08T13:40:18.073Z,30.018
2022-12-08T13:45:27.972Z,30.020
2022-12-08T13:53:10.286Z,30.018
2022-12-08T13:56:37.269Z,30.019
2022-12-08T13:57:10.095Z,30.019
2022-12-08T14:00:17.775Z,30.018
2022-12-08T14:05:20.345Z,30.019
2022-12-08T14:10:17.729Z,30.023
2022-12-08T14:15:17.985Z,30.025
2022-12-08T14:20:18.031Z,30.023
2022-12-08T14:25:17.697Z,30.024
2022-12-08T14:30:17.733Z,30.024
2022-12-08T14:35:17.779Z,30.026
2022-12-08T14:40:22.725Z,30.023
2022-12-08T14:45:17.783Z,30.025
2022-12-08T14:50:17.834Z,30.028
2022-12-08T14:55:17.951Z,30.028
2022-12-08T15:00:18.019Z,30.026
2022-12-08T15:05:17.874Z,30.028
2022-12-08T15:10:17.922Z,30.023
2022-12-08T15:15:18.205Z,30.022
2022-12-08T15:20:17.934Z,30.019
2022-12-08T15:25:18.056Z,30.017
2022-12-08T15:30:17.948Z,30.017
2022-12-08T15:35:17.892Z,30.017
2022-12-08T15:40:18.095Z,30.017
2022-12-08T15:45:17.827Z,30.017
2022-12-08T15:50:18.039Z,30.016
2022-12-08T15:55:18.040Z,30.012
2022-12-08T16:00:43.689Z,30.008
2022-12-08T16:05:42.206Z,30.005
2022-12-08T16:10:18.259Z,30.006
2022-12-08T16:16:00.312Z,30.014
2022-12-08T16:20:18.037Z,30.014
2022-12-08T16:25:20.446Z,30.017
2022-12-08T16:30:18.291Z,30.019
2022-12-08T16:35:17.938Z,30.018
2022-12-08T16:40:18.129Z,30.024
2022-12-08T16:45:18.339Z,30.024
2022-12-08T16:50:18.135Z,30.023
2022-12-08T16:55:18.073Z,30.020
2022-12-08T17:00:18.421Z,30.020
2022-12-08T17:05:18.178Z,30.014
2022-12-08T17:10:18.435Z,30.011
2022-12-08T17:15:18.075Z,30.009
2022-12-08T17:20:18.231Z,30.010
2022-12-08T17:25:18.264Z,30.014
2022-12-08T17:30:18.086Z,30.013
2022-12-08T17:35:18.788Z,30.013
2022-12-08T17:40:16.313Z,30.010
2022-12-08T17:45:16.166Z,30.010
2022-12-08T17:50:16.139Z,30.010
2022-12-08T17:55:16.265Z,30.005
2022-12-08T18:00:16.383Z,30.007
2022-12-08T18:05:17.191Z,30.007
2022-12-08T18:10:16.659Z,30.005
2022-12-08T18:15:16.293Z,30.008
2022-12-08T18:20:16.298Z,30.007
2022-12-08T18:25:16.402Z,30.003
2022-12-08T18:30:16.405Z,29.999
2022-12-08T18:35:16.233Z,29.996
2022-12-08T18:40:16.617Z,29.996
2022-12-08T18:45:22.053Z,30.001
2022-12-08T18:50:16.397Z,30.003
2022-12-08T18:55:16.402Z,30.005
2022-12-08T19:00:16.368Z,30.012
2022-12-08T19:05:16.395Z,30.014
2022-12-08T19:10:16.764Z,30.017
2022-12-08T19:15:16.315Z,30.015
2022-12-08T19:20:16.552Z,30.010
2022-12-08T19:25:16.493Z,30.011
2022-12-08T19:30:16.529Z,30.018
2022-12-08T19:35:16.410Z,30.023
2022-12-08T19:40:16.667Z,30.023
2022-12-08T19:45:16.463Z,30.029
2022-12-08T19:50:16.917Z,30.032
2022-12-08T19:55:16.917Z,30.031
2022-12-08T20:00:17.297Z,30.032
2022-12-08T20:05:16.568Z,30.037
2022-12-08T20:10:16.664Z,30.039
2022-12-08T20:15:16.551Z,30.033
2022-12-08T20:20:16.809Z,30.036
2022-12-08T20:25:16.992Z,30.039
2022-12-08T20:30:17.554Z,30.040
2022-12-08T20:35:16.639Z,30.037
2022-12-08T20:40:16.745Z,30.038
2022-12-08T20:45:16.563Z,30.039
2022-12-08T20:50:16.893Z,30.043
2022-12-08T20:55:16.760Z,30.045
2022-12-08T21:00:17.050Z,30.043
2022-12-08T21:05:17.266Z,30.047
2022-12-08T21:10:16.833Z,30.049
2022-12-08T21:15:17.729Z,30.047
2022-12-08T21:20:17.786Z,30.049
2022-12-08T21:25:17.764Z,30.049
2022-12-08T21:30:17.884Z,30.049
2022-12-08T21:35:17.995Z,30.049
2022-12-08T21:40:17.973Z,30.052
2022-12-08T21:45:17.767Z,30.054
2022-12-08T21:50:18.083Z,30.052
2022-12-08T21:55:18.078Z,30.057
2022-12-08T22:00:19.257Z,30.059
2022-12-08T22:05:18.333Z,30.058
2022-12-08T22:10:18.453Z,30.059
2022-12-08T22:15:17.931Z,30.060
2022-12-08T22:20:18.060Z,30.058
2022-12-08T22:25:18.056Z,30.056
2022-12-08T22:30:18.036Z,30.057
2022-12-08T22:35:17.961Z,30.058
2022-12-08T22:40:18.017Z,30.060
2022-12-08T22:45:18.153Z,30.057
2022-12-08T22:50:18.043Z,30.060
2022-12-08T22:55:18.253Z,30.060
2022-12-08T23:00:18.087Z,30.060
2022-12-08T23:05:18.346Z,30.062
2022-12-08T23:10:18.315Z,30.061
2022-12-08T23:15:18.064Z,30.065
2022-12-08T23:20:18.188Z,30.063
2022-12-08T23:25:18.172Z,30.061
2022-12-08T23:30:18.172Z,30.064
2022-12-08T23:35:17.950Z,30.065
2022-12-08T23:40:18.721Z,30.068
2022-12-08T23:45:18.389Z,30.071
2022-12-08T23:50:18.278Z,30.071
2022-12-08T23:55:18.387Z,30.078
